sensor_id;sensor_type;location;lat;lon;timestamp;temperature;humidity
31003;DHT22;23051;-6.372;106.786;2023-12-20T00:00:51;27.50;66.80
31003;DHT22;23051;-6.372;106.786;2023-12-20T00:02:54;27.50;66.70
31003;DHT22;23051;-6.372;106.786;2023-12-20T00:04:55;27.50;66.70
31003;DHT22;23051;-6.372;106.786;2023-12-20T00:06:59;27.60;66.70
31003;DHT22;23051;-6.372;106.786;2023-12-20T00:09:00;27.60;66.60
31003;DHT22;23051;-6.372;106.786;2023-12-20T00:11:03;27.70;66.50
31003;DHT22;23051;-6.372;106.786;2023-12-20T00:13:06;27.70;66.40
31003;DHT22;23051;-6.372;106.786;2023-12-20T00:15:08;27.80;66.30
31003;DHT22;23051;-6.372;106.786;2023-12-20T00:17:11;27.80;66.20
31003;DHT22;23051;-6.372;106.786;2023-12-20T00:19:12;27.80;66.00
31003;DHT22;23051;-6.372;106.786;2023-12-20T00:21:14;27.90;66.00
31003;DHT22;23051;-6.372;106.786;2023-12-20T00:23:17;27.90;65.90
31003;DHT22;23051;-6.372;106.786;2023-12-20T00:25:18;28.00;65.80
31003;DHT22;23051;-6.372;106.786;2023-12-20T00:27:19;28.00;65.80
31003;DHT22;23051;-6.372;106.786;2023-12-20T00:29:23;28.10;65.70
31003;DHT22;23051;-6.372;106.786;2023-12-20T00:31:28;28.10;65.50
31003;DHT22;23051;-6.372;106.786;2023-12-20T00:33:31;28.20;65.60
31003;DHT22;23051;-6.372;106.786;2023-12-20T00:35:32;28.20;65.60
31003;DHT22;23051;-6.372;106.786;2023-12-20T00:37:33;28.20;65.40
31003;DHT22;23051;-6.372;106.786;2023-12-20T00:39:35;28.30;65.50
31003;DHT22;23051;-6.372;106.786;2023-12-20T00:41:36;28.30;65.50
31003;DHT22;23051;-6.372;106.786;2023-12-20T00:43:40;28.30;65.50
31003;DHT22;23051;-6.372;106.786;2023-12-20T00:45:41;28.30;65.40
31003;DHT22;23051;-6.372;106.786;2023-12-20T00:47:45;28.40;65.40
31003;DHT22;23051;-6.372;106.786;2023-12-20T00:49:48;28.40;65.30
31003;DHT22;23051;-6.372;106.786;2023-12-20T00:51:49;28.40;65.20
31003;DHT22;23051;-6.372;106.786;2023-12-20T00:53:54;28.50;65.10
31003;DHT22;23051;-6.372;106.786;2023-12-20T00:55:55;28.60;65.10
31003;DHT22;23051;-6.372;106.786;2023-12-20T00:57:56;28.60;65.80
31003;DHT22;23051;-6.372;106.786;2023-12-20T00:59:57;28.60;64.90
31003;DHT22;23051;-6.372;106.786;2023-12-20T01:01:58;28.60;64.80
31003;DHT22;23051;-6.372;106.786;2023-12-20T01:03:59;28.70;64.80
31003;DHT22;23051;-6.372;106.786;2023-12-20T01:06:01;28.70;64.70
31003;DHT22;23051;-6.372;106.786;2023-12-20T01:08:02;28.70;64.70
31003;DHT22;23051;-6.372;106.786;2023-12-20T01:10:06;28.80;64.70
31003;DHT22;23051;-6.372;106.786;2023-12-20T01:12:12;28.80;64.60
31003;DHT22;23051;-6.372;106.786;2023-12-20T01:14:13;28.90;64.60
31003;DHT22;23051;-6.372;106.786;2023-12-20T01:16:17;28.90;64.50
31003;DHT22;23051;-6.372;106.786;2023-12-20T01:18:18;28.90;64.40
31003;DHT22;23051;-6.372;106.786;2023-12-20T01:20:19;29.00;64.30
31003;DHT22;23051;-6.372;106.786;2023-12-20T01:22:20;29.00;64.30
31003;DHT22;23051;-6.372;106.786;2023-12-20T01:24:21;29.10;64.20
31003;DHT22;23051;-6.372;106.786;2023-12-20T01:26:23;29.10;64.10
31003;DHT22;23051;-6.372;106.786;2023-12-20T01:28:24;29.10;64.00
31003;DHT22;23051;-6.372;106.786;2023-12-20T01:32:28;29.20;63.90
31003;DHT22;23051;-6.372;106.786;2023-12-20T01:34:30;29.30;64.00
31003;DHT22;23051;-6.372;106.786;2023-12-20T01:36:35;29.30;63.90
31003;DHT22;23051;-6.372;106.786;2023-12-20T01:38:37;29.30;63.80
31003;DHT22;23051;-6.372;106.786;2023-12-20T01:40:38;29.40;63.80
31003;DHT22;23051;-6.372;106.786;2023-12-20T01:42:43;29.40;63.70
31003;DHT22;23051;-6.372;106.786;2023-12-20T01:44:44;29.40;63.60
31003;DHT22;23051;-6.372;106.786;2023-12-20T01:46:45;29.50;63.60
31003;DHT22;23051;-6.372;106.786;2023-12-20T01:48:47;29.50;63.60
31003;DHT22;23051;-6.372;106.786;2023-12-20T01:52:49;29.60;63.50
31003;DHT22;23051;-6.372;106.786;2023-12-20T01:54:52;29.60;63.40
31003;DHT22;23051;-6.372;106.786;2023-12-20T01:56:56;29.70;63.40
31003;DHT22;23051;-6.372;106.786;2023-12-20T02:01:00;29.70;63.30
31003;DHT22;23051;-6.372;106.786;2023-12-20T02:05:07;29.80;63.20
31003;DHT22;23051;-6.372;106.786;2023-12-20T02:07:11;29.80;63.20
31003;DHT22;23051;-6.372;106.786;2023-12-20T02:09:12;29.80;63.10
31003;DHT22;23051;-6.372;106.786;2023-12-20T02:11:13;29.90;63.10
31003;DHT22;23051;-6.372;106.786;2023-12-20T02:13:14;29.90;63.00
31003;DHT22;23051;-6.372;106.786;2023-12-20T02:15:15;30.00;63.00
31003;DHT22;23051;-6.372;106.786;2023-12-20T02:17:19;30.00;62.90
31003;DHT22;23051;-6.372;106.786;2023-12-20T02:19:21;30.10;62.90
31003;DHT22;23051;-6.372;106.786;2023-12-20T02:21:25;30.10;62.80
31003;DHT22;23051;-6.372;106.786;2023-12-20T02:23:28;30.20;62.80
31003;DHT22;23051;-6.372;106.786;2023-12-20T02:25:32;30.20;62.70
31003;DHT22;23051;-6.372;106.786;2023-12-20T02:27:33;30.20;62.60
31003;DHT22;23051;-6.372;106.786;2023-12-20T02:29:35;30.30;62.60
31003;DHT22;23051;-6.372;106.786;2023-12-20T02:31:36;30.30;62.50
31003;DHT22;23051;-6.372;106.786;2023-12-20T02:33:37;30.30;62.40
31003;DHT22;23051;-6.372;106.786;2023-12-20T02:35:45;30.40;62.40
31003;DHT22;23051;-6.372;106.786;2023-12-20T02:37:50;30.50;62.40
31003;DHT22;23051;-6.372;106.786;2023-12-20T02:39:51;30.50;62.30
31003;DHT22;23051;-6.372;106.786;2023-12-20T02:41:53;30.50;62.30
31003;DHT22;23051;-6.372;106.786;2023-12-20T02:43:56;30.50;62.20
31003;DHT22;23051;-6.372;106.786;2023-12-20T02:45:59;30.60;62.10
31003;DHT22;23051;-6.372;106.786;2023-12-20T02:48:00;30.70;62.00
31003;DHT22;23051;-6.372;106.786;2023-12-20T02:50:01;30.80;61.80
31003;DHT22;23051;-6.372;106.786;2023-12-20T02:52:02;30.90;61.50
31003;DHT22;23051;-6.372;106.786;2023-12-20T02:54:04;31.10;61.40
31003;DHT22;23051;-6.372;106.786;2023-12-20T02:56:05;31.20;61.30
31003;DHT22;23051;-6.372;106.786;2023-12-20T02:58:09;31.20;61.10
31003;DHT22;23051;-6.372;106.786;2023-12-20T03:00:12;31.30;60.90
31003;DHT22;23051;-6.372;106.786;2023-12-20T03:02:31;31.30;60.90
31003;DHT22;23051;-6.372;106.786;2023-12-20T03:04:32;31.40;60.90
31003;DHT22;23051;-6.372;106.786;2023-12-20T03:06:33;31.50;60.70
31003;DHT22;23051;-6.372;106.786;2023-12-20T03:08:34;31.60;60.60
31003;DHT22;23051;-6.372;106.786;2023-12-20T03:10:39;31.70;60.50
31003;DHT22;23051;-6.372;106.786;2023-12-20T03:12:45;31.70;60.40
31003;DHT22;23051;-6.372;106.786;2023-12-20T03:14:46;31.80;60.30
31003;DHT22;23051;-6.372;106.786;2023-12-20T03:16:49;31.80;60.20
31003;DHT22;23051;-6.372;106.786;2023-12-20T03:18:50;31.90;60.10
31003;DHT22;23051;-6.372;106.786;2023-12-20T03:20:54;32.00;60.00
31003;DHT22;23051;-6.372;106.786;2023-12-20T03:22:55;32.00;60.00
31003;DHT22;23051;-6.372;106.786;2023-12-20T03:24:58;32.00;60.00
31003;DHT22;23051;-6.372;106.786;2023-12-20T03:27:01;32.00;60.00
31003;DHT22;23051;-6.372;106.786;2023-12-20T03:29:05;32.00;60.00
31003;DHT22;23051;-6.372;106.786;2023-12-20T03:31:09;32.00;60.00
31003;DHT22;23051;-6.372;106.786;2023-12-20T03:33:10;32.10;59.90
31003;DHT22;23051;-6.372;106.786;2023-12-20T03:35:11;32.20;59.90
31003;DHT22;23051;-6.372;106.786;2023-12-20T03:37:12;32.20;59.80
31003;DHT22;23051;-6.372;106.786;2023-12-20T03:39:14;32.20;59.80
31003;DHT22;23051;-6.372;106.786;2023-12-20T03:41:18;32.20;59.80
31003;DHT22;23051;-6.372;106.786;2023-12-20T03:43:19;32.30;59.80
31003;DHT22;23051;-6.372;106.786;2023-12-20T03:45:20;32.40;59.70
31003;DHT22;23051;-6.372;106.786;2023-12-20T03:47:24;32.40;59.60
31003;DHT22;23051;-6.372;106.786;2023-12-20T03:49:27;32.40;59.60
31003;DHT22;23051;-6.372;106.786;2023-12-20T03:51:31;32.50;59.60
31003;DHT22;23051;-6.372;106.786;2023-12-20T03:53:35;32.50;59.40
31003;DHT22;23051;-6.372;106.786;2023-12-20T03:55:36;32.60;59.40
31003;DHT22;23051;-6.372;106.786;2023-12-20T03:57:37;32.60;59.30
31003;DHT22;23051;-6.372;106.786;2023-12-20T03:59:40;32.80;59.30
31003;DHT22;23051;-6.372;106.786;2023-12-20T04:01:43;32.80;59.20
31003;DHT22;23051;-6.372;106.786;2023-12-20T04:03:45;32.80;59.10
31003;DHT22;23051;-6.372;106.786;2023-12-20T04:05:46;32.90;59.10
31003;DHT22;23051;-6.372;106.786;2023-12-20T04:07:47;32.90;59.10
31003;DHT22;23051;-6.372;106.786;2023-12-20T04:09:51;33.00;59.10
31003;DHT22;23051;-6.372;106.786;2023-12-20T04:11:55;33.00;59.00
31003;DHT22;23051;-6.372;106.786;2023-12-20T04:13:56;33.00;59.00
31003;DHT22;23051;-6.372;106.786;2023-12-20T04:15:57;33.00;58.90
31003;DHT22;23051;-6.372;106.786;2023-12-20T04:17:58;33.10;58.90
31003;DHT22;23051;-6.372;106.786;2023-12-20T04:20:05;33.10;58.80
31003;DHT22;23051;-6.372;106.786;2023-12-20T04:22:06;33.20;58.70
31003;DHT22;23051;-6.372;106.786;2023-12-20T04:24:07;33.30;58.60
31003;DHT22;23051;-6.372;106.786;2023-12-20T04:26:09;33.30;58.60
31003;DHT22;23051;-6.372;106.786;2023-12-20T04:28:10;33.40;58.50
31003;DHT22;23051;-6.372;106.786;2023-12-20T04:30:13;33.50;58.50
31003;DHT22;23051;-6.372;106.786;2023-12-20T04:32:17;33.50;58.50
31003;DHT22;23051;-6.372;106.786;2023-12-20T04:34:18;33.50;58.40
31003;DHT22;23051;-6.372;106.786;2023-12-20T04:38:20;33.60;58.30
31003;DHT22;23051;-6.372;106.786;2023-12-20T04:40:24;33.70;58.30
31003;DHT22;23051;-6.372;106.786;2023-12-20T04:42:25;33.70;58.30
31003;DHT22;23051;-6.372;106.786;2023-12-20T04:44:26;33.70;58.30
31003;DHT22;23051;-6.372;106.786;2023-12-20T04:46:27;33.80;58.20
31003;DHT22;23051;-6.372;106.786;2023-12-20T04:48:28;33.80;58.10
31003;DHT22;23051;-6.372;106.786;2023-12-20T04:50:29;33.80;58.10
31003;DHT22;23051;-6.372;106.786;2023-12-20T04:52:30;33.90;58.10
31003;DHT22;23051;-6.372;106.786;2023-12-20T04:54:31;33.90;58.10
31003;DHT22;23051;-6.372;106.786;2023-12-20T04:56:32;33.90;58.00
31003;DHT22;23051;-6.372;106.786;2023-12-20T04:58:34;34.00;57.90
31003;DHT22;23051;-6.372;106.786;2023-12-20T05:00:35;34.00;57.80
31003;DHT22;23051;-6.372;106.786;2023-12-20T05:02:38;34.10;57.90
31003;DHT22;23051;-6.372;106.786;2023-12-20T05:04:39;34.10;57.80
31003;DHT22;23051;-6.372;106.786;2023-12-20T05:06:42;34.20;57.70
31003;DHT22;23051;-6.372;106.786;2023-12-20T05:08:45;34.20;57.70
31003;DHT22;23051;-6.372;106.786;2023-12-20T05:10:47;34.20;57.70
31003;DHT22;23051;-6.372;106.786;2023-12-20T05:12:48;34.20;57.80
31003;DHT22;23051;-6.372;106.786;2023-12-20T05:14:52;34.20;57.70
31003;DHT22;23051;-6.372;106.786;2023-12-20T05:16:56;34.30;57.70
31003;DHT22;23051;-6.372;106.786;2023-12-20T05:18:57;34.30;57.60
31003;DHT22;23051;-6.372;106.786;2023-12-20T05:20:59;34.40;57.60
31003;DHT22;23051;-6.372;106.786;2023-12-20T05:23:02;34.40;57.60
31003;DHT22;23051;-6.372;106.786;2023-12-20T05:25:05;34.40;57.70
31003;DHT22;23051;-6.372;106.786;2023-12-20T05:27:07;34.40;57.70
31003;DHT22;23051;-6.372;106.786;2023-12-20T05:29:08;34.50;57.60
31003;DHT22;23051;-6.372;106.786;2023-12-20T05:31:09;34.50;57.50
31003;DHT22;23051;-6.372;106.786;2023-12-20T05:33:15;34.50;57.40
31003;DHT22;23051;-6.372;106.786;2023-12-20T05:35:16;34.50;57.40
31003;DHT22;23051;-6.372;106.786;2023-12-20T05:37:20;34.60;57.40
31003;DHT22;23051;-6.372;106.786;2023-12-20T05:39:21;34.60;57.30
31003;DHT22;23051;-6.372;106.786;2023-12-20T05:41:22;34.70;57.30
31003;DHT22;23051;-6.372;106.786;2023-12-20T05:43:26;34.70;57.30
31003;DHT22;23051;-6.372;106.786;2023-12-20T05:45:27;34.70;57.30
31003;DHT22;23051;-6.372;106.786;2023-12-20T05:47:28;34.70;57.20
31003;DHT22;23051;-6.372;106.786;2023-12-20T05:49:31;34.70;57.20
31003;DHT22;23051;-6.372;106.786;2023-12-20T05:51:32;34.80;57.20
31003;DHT22;23051;-6.372;106.786;2023-12-20T05:53:33;34.80;57.10
31003;DHT22;23051;-6.372;106.786;2023-12-20T05:55:34;34.90;57.00
31003;DHT22;23051;-6.372;106.786;2023-12-20T05:57:40;34.90;56.90
31003;DHT22;23051;-6.372;106.786;2023-12-20T05:59:43;35.00;57.00
31003;DHT22;23051;-6.372;106.786;2023-12-20T06:01:45;35.00;57.00
31003;DHT22;23051;-6.372;106.786;2023-12-20T06:03:50;35.00;56.90
31003;DHT22;23051;-6.372;106.786;2023-12-20T06:05:52;35.10;56.90
31003;DHT22;23051;-6.372;106.786;2023-12-20T06:07:53;35.10;56.80
31003;DHT22;23051;-6.372;106.786;2023-12-20T06:09:55;35.20;56.70
31003;DHT22;23051;-6.372;106.786;2023-12-20T06:11:58;35.20;56.70
31003;DHT22;23051;-6.372;106.786;2023-12-20T06:14:02;35.20;56.70
31003;DHT22;23051;-6.372;106.786;2023-12-20T06:16:05;35.30;56.60
31003;DHT22;23051;-6.372;106.786;2023-12-20T06:18:09;35.40;56.60
31003;DHT22;23051;-6.372;106.786;2023-12-20T06:20:10;35.40;56.40
31003;DHT22;23051;-6.372;106.786;2023-12-20T06:22:11;35.50;56.40
31003;DHT22;23051;-6.372;106.786;2023-12-20T06:24:12;35.50;56.20
31003;DHT22;23051;-6.372;106.786;2023-12-20T06:26:13;35.50;56.20
31003;DHT22;23051;-6.372;106.786;2023-12-20T06:28:14;35.60;56.30
31003;DHT22;23051;-6.372;106.786;2023-12-20T06:30:16;35.70;56.20
31003;DHT22;23051;-6.372;106.786;2023-12-20T06:32:20;35.70;56.00
31003;DHT22;23051;-6.372;106.786;2023-12-20T06:34:21;35.80;55.90
31003;DHT22;23051;-6.372;106.786;2023-12-20T06:36:23;35.90;55.90
31003;DHT22;23051;-6.372;106.786;2023-12-20T06:38:24;35.90;55.80
31003;DHT22;23051;-6.372;106.786;2023-12-20T06:40:26;35.90;55.90
31003;DHT22;23051;-6.372;106.786;2023-12-20T06:42:27;36.00;55.80
31003;DHT22;23051;-6.372;106.786;2023-12-20T06:44:30;36.00;55.70
31003;DHT22;23051;-6.372;106.786;2023-12-20T06:46:32;36.10;55.70
31003;DHT22;23051;-6.372;106.786;2023-12-20T06:48:33;36.30;55.60
31003;DHT22;23051;-6.372;106.786;2023-12-20T06:50:34;36.30;55.40
31003;DHT22;23051;-6.372;106.786;2023-12-20T06:52:37;36.30;55.40
31003;DHT22;23051;-6.372;106.786;2023-12-20T06:54:38;36.30;55.40
31003;DHT22;23051;-6.372;106.786;2023-12-20T06:56:39;36.30;55.40
31003;DHT22;23051;-6.372;106.786;2023-12-20T06:58:41;36.40;55.30
31003;DHT22;23051;-6.372;106.786;2023-12-20T07:00:43;36.50;55.10
31003;DHT22;23051;-6.372;106.786;2023-12-20T07:02:44;36.60;55.10
31003;DHT22;23051;-6.372;106.786;2023-12-20T07:04:45;36.70;55.00
31003;DHT22;23051;-6.372;106.786;2023-12-20T07:06:47;36.80;55.00
31003;DHT22;23051;-6.372;106.786;2023-12-20T07:08:48;36.90;54.90
31003;DHT22;23051;-6.372;106.786;2023-12-20T07:10:49;36.90;54.70
31003;DHT22;23051;-6.372;106.786;2023-12-20T07:12:50;37.00;54.70
31003;DHT22;23051;-6.372;106.786;2023-12-20T07:14:55;37.00;54.60
31003;DHT22;23051;-6.372;106.786;2023-12-20T07:16:56;37.10;54.50
31003;DHT22;23051;-6.372;106.786;2023-12-20T07:18:57;37.20;54.50
31003;DHT22;23051;-6.372;106.786;2023-12-20T07:20:58;37.30;54.40
31003;DHT22;23051;-6.372;106.786;2023-12-20T07:23:00;37.30;54.30
31003;DHT22;23051;-6.372;106.786;2023-12-20T07:25:06;37.40;54.30
31003;DHT22;23051;-6.372;106.786;2023-12-20T07:27:07;37.50;54.10
31003;DHT22;23051;-6.372;106.786;2023-12-20T07:29:10;37.50;54.10
31003;DHT22;23051;-6.372;106.786;2023-12-20T07:31:14;37.60;54.00
31003;DHT22;23051;-6.372;106.786;2023-12-20T07:33:18;37.70;53.90
31003;DHT22;23051;-6.372;106.786;2023-12-20T07:35:19;37.80;53.80
31003;DHT22;23051;-6.372;106.786;2023-12-20T07:37:23;37.90;53.70
31003;DHT22;23051;-6.372;106.786;2023-12-20T07:39:24;38.00;53.70
31003;DHT22;23051;-6.372;106.786;2023-12-20T07:41:27;38.10;53.60
31003;DHT22;23051;-6.372;106.786;2023-12-20T07:43:29;38.10;53.40
31003;DHT22;23051;-6.372;106.786;2023-12-20T07:45:32;38.20;53.40
31003;DHT22;23051;-6.372;106.786;2023-12-20T07:47:36;38.30;53.40
31003;DHT22;23051;-6.372;106.786;2023-12-20T07:49:37;38.40;53.30
31003;DHT22;23051;-6.372;106.786;2023-12-20T07:51:42;38.40;53.20
31003;DHT22;23051;-6.372;106.786;2023-12-20T07:53:43;38.40;53.20
31003;DHT22;23051;-6.372;106.786;2023-12-20T07:55:44;38.40;53.20
31003;DHT22;23051;-6.372;106.786;2023-12-20T07:57:45;38.30;53.20
31003;DHT22;23051;-6.372;106.786;2023-12-20T08:01:47;38.50;53.10
31003;DHT22;23051;-6.372;106.786;2023-12-20T08:03:48;38.60;53.10
31003;DHT22;23051;-6.372;106.786;2023-12-20T08:05:50;38.70;53.00
31003;DHT22;23051;-6.372;106.786;2023-12-20T08:07:53;38.70;52.80
31003;DHT22;23051;-6.372;106.786;2023-12-20T08:09:54;38.80;52.70
31003;DHT22;23051;-6.372;106.786;2023-12-20T08:11:58;38.80;52.70
31003;DHT22;23051;-6.372;106.786;2023-12-20T08:14:00;38.90;52.70
31003;DHT22;23051;-6.372;106.786;2023-12-20T08:16:01;38.90;52.70
31003;DHT22;23051;-6.372;106.786;2023-12-20T08:18:05;39.00;52.70
31003;DHT22;23051;-6.372;106.786;2023-12-20T08:20:06;39.00;52.70
31003;DHT22;23051;-6.372;106.786;2023-12-20T08:22:08;38.90;52.70
31003;DHT22;23051;-6.372;106.786;2023-12-20T08:24:09;38.90;52.70
31003;DHT22;23051;-6.372;106.786;2023-12-20T08:26:10;39.00;52.70
31003;DHT22;23051;-6.372;106.786;2023-12-20T08:28:11;39.00;52.60
31003;DHT22;23051;-6.372;106.786;2023-12-20T08:30:12;39.10;52.60
31003;DHT22;23051;-6.372;106.786;2023-12-20T08:32:16;39.10;52.60
31003;DHT22;23051;-6.372;106.786;2023-12-20T08:34:17;39.10;52.60
31003;DHT22;23051;-6.372;106.786;2023-12-20T08:36:19;39.10;52.60
31003;DHT22;23051;-6.372;106.786;2023-12-20T08:38:26;39.10;52.60
31003;DHT22;23051;-6.372;106.786;2023-12-20T08:40:27;39.10;52.60
31003;DHT22;23051;-6.372;106.786;2023-12-20T08:42:28;39.10;52.60
31003;DHT22;23051;-6.372;106.786;2023-12-20T08:44:32;39.10;52.50
31003;DHT22;23051;-6.372;106.786;2023-12-20T08:46:36;39.10;52.50
31003;DHT22;23051;-6.372;106.786;2023-12-20T08:48:37;39.10;52.50
31003;DHT22;23051;-6.372;106.786;2023-12-20T08:50:39;39.20;52.50
31003;DHT22;23051;-6.372;106.786;2023-12-20T08:52:40;39.20;52.40
31003;DHT22;23051;-6.372;106.786;2023-12-20T08:54:43;39.50;52.10
31003;DHT22;23051;-6.372;106.786;2023-12-20T08:56:44;40.10;51.10
31003;DHT22;23051;-6.372;106.786;2023-12-20T08:58:48;40.70;50.00
31003;DHT22;23051;-6.372;106.786;2023-12-20T09:00:49;40.50;50.10
31003;DHT22;23051;-6.372;106.786;2023-12-20T09:02:50;40.30;50.40
31003;DHT22;23051;-6.372;106.786;2023-12-20T09:04:51;40.00;50.80
31003;DHT22;23051;-6.372;106.786;2023-12-20T09:06:52;39.80;51.10
31003;DHT22;23051;-6.372;106.786;2023-12-20T09:08:53;39.60;51.30
31003;DHT22;23051;-6.372;106.786;2023-12-20T09:10:55;39.50;51.60
31003;DHT22;23051;-6.372;106.786;2023-12-20T09:12:58;39.50;51.70
31003;DHT22;23051;-6.372;106.786;2023-12-20T09:14:59;39.70;52.00
31003;DHT22;23051;-6.372;106.786;2023-12-20T09:17:03;39.90;51.20
31003;DHT22;23051;-6.372;106.786;2023-12-20T09:19:07;40.00;51.00
31003;DHT22;23051;-6.372;106.786;2023-12-20T09:21:10;40.00;50.90
31003;DHT22;23051;-6.372;106.786;2023-12-20T09:23:11;39.80;51.10
31003;DHT22;23051;-6.372;106.786;2023-12-20T09:25:18;39.60;51.60
31003;DHT22;23051;-6.372;106.786;2023-12-20T09:27:22;39.30;52.10
31003;DHT22;23051;-6.372;106.786;2023-12-20T09:29:23;39.00;52.40
31003;DHT22;23051;-6.372;106.786;2023-12-20T09:31:25;38.80;52.90
31003;DHT22;23051;-6.372;106.786;2023-12-20T09:33:28;38.50;53.20
31003;DHT22;23051;-6.372;106.786;2023-12-20T09:35:29;38.30;53.50
31003;DHT22;23051;-6.372;106.786;2023-12-20T09:37:30;38.10;53.80
31003;DHT22;23051;-6.372;106.786;2023-12-20T09:39:31;38.00;54.10
31003;DHT22;23051;-6.372;106.786;2023-12-20T09:41:34;37.90;54.20
31003;DHT22;23051;-6.372;106.786;2023-12-20T09:43:38;37.70;54.30
31003;DHT22;23051;-6.372;106.786;2023-12-20T09:45:40;37.60;54.50
31003;DHT22;23051;-6.372;106.786;2023-12-20T09:47:43;37.40;54.80
31003;DHT22;23051;-6.372;106.786;2023-12-20T09:49:46;37.30;55.00
31003;DHT22;23051;-6.372;106.786;2023-12-20T09:51:50;37.20;55.10
31003;DHT22;23051;-6.372;106.786;2023-12-20T09:53:52;37.20;55.20
31003;DHT22;23051;-6.372;106.786;2023-12-20T09:55:58;37.10;55.20
31003;DHT22;23051;-6.372;106.786;2023-12-20T09:58:01;37.10;55.20
31003;DHT22;23051;-6.372;106.786;2023-12-20T10:00:02;37.00;55.20
31003;DHT22;23051;-6.372;106.786;2023-12-20T10:02:04;36.90;55.30
31003;DHT22;23051;-6.372;106.786;2023-12-20T10:04:08;36.90;55.40
31003;DHT22;23051;-6.372;106.786;2023-12-20T10:06:11;36.90;55.50
31003;DHT22;23051;-6.372;106.786;2023-12-20T10:08:12;36.80;55.60
31003;DHT22;23051;-6.372;106.786;2023-12-20T10:10:14;36.70;55.70
31003;DHT22;23051;-6.372;106.786;2023-12-20T10:12:15;36.60;55.70
31003;DHT22;23051;-6.372;106.786;2023-12-20T10:14:16;36.60;55.70
31003;DHT22;23051;-6.372;106.786;2023-12-20T10:16:23;36.50;55.80
31003;DHT22;23051;-6.372;106.786;2023-12-20T10:18:25;36.50;55.90
31003;DHT22;23051;-6.372;106.786;2023-12-20T10:20:26;36.40;56.00
31003;DHT22;23051;-6.372;106.786;2023-12-20T10:22:31;36.30;56.10
31003;DHT22;23051;-6.372;106.786;2023-12-20T10:24:35;36.10;56.30
31003;DHT22;23051;-6.372;106.786;2023-12-20T10:26:42;35.90;56.50
31003;DHT22;23051;-6.372;106.786;2023-12-20T10:28:46;35.90;56.70
31003;DHT22;23051;-6.372;106.786;2023-12-20T10:30:47;35.90;56.70
31003;DHT22;23051;-6.372;106.786;2023-12-20T10:32:51;35.90;56.60
31003;DHT22;23051;-6.372;106.786;2023-12-20T10:34:52;35.80;56.60
31003;DHT22;23051;-6.372;106.786;2023-12-20T10:36:54;35.70;56.70
31003;DHT22;23051;-6.372;106.786;2023-12-20T10:38:57;35.60;56.90
31003;DHT22;23051;-6.372;106.786;2023-12-20T10:41:01;35.50;56.90
31003;DHT22;23051;-6.372;106.786;2023-12-20T10:43:04;35.50;57.00
31003;DHT22;23051;-6.372;106.786;2023-12-20T10:45:06;35.40;57.00
31003;DHT22;23051;-6.372;106.786;2023-12-20T10:47:07;35.30;57.10
31003;DHT22;23051;-6.372;106.786;2023-12-20T10:49:10;35.30;57.20
31003;DHT22;23051;-6.372;106.786;2023-12-20T10:51:11;35.30;57.20
31003;DHT22;23051;-6.372;106.786;2023-12-20T10:53:12;35.30;57.20
31003;DHT22;23051;-6.372;106.786;2023-12-20T10:55:14;35.30;57.20
31003;DHT22;23051;-6.372;106.786;2023-12-20T10:57:16;35.40;57.00
31003;DHT22;23051;-6.372;106.786;2023-12-20T10:59:24;35.50;56.70
31003;DHT22;23051;-6.372;106.786;2023-12-20T11:01:26;35.60;56.60
31003;DHT22;23051;-6.372;106.786;2023-12-20T11:03:32;35.70;56.30
31003;DHT22;23051;-6.372;106.786;2023-12-20T11:07:40;35.90;56.00
31003;DHT22;23051;-6.372;106.786;2023-12-20T11:09:45;36.00;55.80
31003;DHT22;23051;-6.372;106.786;2023-12-20T11:11:56;36.10;55.70
31003;DHT22;23051;-6.372;106.786;2023-12-20T11:14:01;36.10;55.70
31003;DHT22;23051;-6.372;106.786;2023-12-20T11:16:03;36.10;55.50
31003;DHT22;23051;-6.372;106.786;2023-12-20T11:18:07;36.20;55.50
31003;DHT22;23051;-6.372;106.786;2023-12-20T11:20:08;36.20;55.50
31003;DHT22;23051;-6.372;106.786;2023-12-20T11:22:12;36.20;55.50
31003;DHT22;23051;-6.372;106.786;2023-12-20T11:24:13;36.20;55.50
31003;DHT22;23051;-6.372;106.786;2023-12-20T11:26:22;36.10;55.60
31003;DHT22;23051;-6.372;106.786;2023-12-20T11:28:24;36.00;55.60
31003;DHT22;23051;-6.372;106.786;2023-12-20T11:30:28;36.00;55.70
31003;DHT22;23051;-6.372;106.786;2023-12-20T11:32:41;35.90;55.70
31003;DHT22;23051;-6.372;106.786;2023-12-20T11:34:45;35.90;55.70
31003;DHT22;23051;-6.372;106.786;2023-12-20T11:36:46;35.90;55.70
31003;DHT22;23051;-6.372;106.786;2023-12-20T11:40:54;35.90;55.70
31003;DHT22;23051;-6.372;106.786;2023-12-20T11:44:59;35.70;55.90
31003;DHT22;23051;-6.372;106.786;2023-12-20T11:47:00;35.50;56.20
31003;DHT22;23051;-6.372;106.786;2023-12-20T11:49:01;35.40;56.50
31003;DHT22;23051;-6.372;106.786;2023-12-20T11:53:06;35.10;56.90
31003;DHT22;23051;-6.372;106.786;2023-12-20T11:55:12;34.90;57.10
31003;DHT22;23051;-6.372;106.786;2023-12-20T11:57:13;34.80;57.30
31003;DHT22;23051;-6.372;106.786;2023-12-20T11:59:14;34.80;57.40
31003;DHT22;23051;-6.372;106.786;2023-12-20T12:01:19;34.70;57.60
31003;DHT22;23051;-6.372;106.786;2023-12-20T12:03:21;34.50;57.70
31003;DHT22;23051;-6.372;106.786;2023-12-20T12:05:23;34.40;57.80
31003;DHT22;23051;-6.372;106.786;2023-12-20T12:07:27;34.30;58.00
31003;DHT22;23051;-6.372;106.786;2023-12-20T12:09:32;34.20;58.10
31003;DHT22;23051;-6.372;106.786;2023-12-20T12:11:35;34.10;58.20
31003;DHT22;23051;-6.372;106.786;2023-12-20T12:13:36;34.10;58.20
31003;DHT22;23051;-6.372;106.786;2023-12-20T12:15:37;34.20;58.10
31003;DHT22;23051;-6.372;106.786;2023-12-20T12:17:39;34.30;57.90
31003;DHT22;23051;-6.372;106.786;2023-12-20T12:19:40;34.50;57.60
31003;DHT22;23051;-6.372;106.786;2023-12-20T12:21:44;34.60;57.40
31003;DHT22;23051;-6.372;106.786;2023-12-20T12:23:45;34.70;57.20
31003;DHT22;23051;-6.372;106.786;2023-12-20T12:25:48;34.70;57.00
31003;DHT22;23051;-6.372;106.786;2023-12-20T12:27:51;34.80;56.90
31003;DHT22;23051;-6.372;106.786;2023-12-20T12:31:56;34.90;56.70
31003;DHT22;23051;-6.372;106.786;2023-12-20T12:33:58;34.90;56.60
31003;DHT22;23051;-6.372;106.786;2023-12-20T12:36:00;34.90;56.60
31003;DHT22;23051;-6.372;106.786;2023-12-20T12:38:07;34.90;56.60
31003;DHT22;23051;-6.372;106.786;2023-12-20T12:40:11;34.90;56.60
31003;DHT22;23051;-6.372;106.786;2023-12-20T12:42:17;34.90;56.50
31003;DHT22;23051;-6.372;106.786;2023-12-20T12:44:21;34.90;56.50
31003;DHT22;23051;-6.372;106.786;2023-12-20T12:46:22;35.00;56.50
31003;DHT22;23051;-6.372;106.786;2023-12-20T12:48:23;35.00;56.50
31003;DHT22;23051;-6.372;106.786;2023-12-20T12:50:24;34.90;56.40
31003;DHT22;23051;-6.372;106.786;2023-12-20T12:52:25;34.90;56.50